Time;durP1;ratioP1;P1;durP2;ratioP2;P2;SDS_P1;SDS_P2;PMS_P1;PMS_P2;Temp;Humidity;BMP_temperature;BMP_pressure;BME280_temperature;BME280_humidity;BME280_pressure;Samples;Min_cycle;Max_cycle;Signal;HPM_P1;HPM_P2
2022/01/12 00:02:38;;;;;;;18.73;13.00;;;;;;;;;;6108142;28;20613;-69
2022/01/12 00:05:59;;;;;;;15.40;13.57;;;;;;;;;;6106684;28;20256;-69
2022/01/12 00:09:21;;;;;;;15.13;12.80;;;;;;;;;;6095928;28;21879;-70
2022/01/12 00:12:42;;;;;;;16.90;12.60;;;;;;;;;;6104529;28;20232;-70
2022/01/12 00:16:03;;;;;;;18.50;14.13;;;;;;;;;;6105233;28;20263;-69
2022/01/12 00:19:25;;;;;;;17.07;13.07;;;;;;;;;;6111836;28;20232;-69
2022/01/12 00:22:45;;;;;;;17.00;14.10;;;;;;;;;;6105718;28;20255;-69
2022/01/12 00:26:11;;;;;;;16.23;13.90;;;;;;;;;;6111634;28;20236;-68
2022/01/12 00:33:12;;;;;;;20.10;14.13;;;;;;;;;;6127549;28;20235;-69
2022/01/12 00:36:33;;;;;;;18.70;13.53;;;;;;;;;;6112193;28;20264;-70
2022/01/12 00:39:58;;;;;;;15.80;13.90;;;;;;;;;;6108269;28;20618;-70
2022/01/12 00:43:21;;;;;;;19.40;15.40;;;;;;;;;;6114443;28;20743;-69
2022/01/12 00:46:41;;;;;;;17.80;15.10;;;;;;;;;;6093161;28;20507;-70
2022/01/12 00:50:02;;;;;;;21.40;17.50;;;;;;;;;;6120588;28;20240;-69
2022/01/12 00:53:23;;;;;;;19.87;16.70;;;;;;;;;;6108648;28;20499;-69
2022/01/12 00:56:44;;;;;;;19.17;16.30;;;;;;;;;;6127699;28;20694;-68
2022/01/12 01:00:07;;;;;;;24.10;17.77;;;;;;;;;;6111229;28;20231;-70
2022/01/12 01:03:28;;;;;;;22.23;17.00;;;;;;;;;;6111000;28;20236;-71
2022/01/12 01:06:51;;;;;;;20.60;17.77;;;;;;;;;;6120884;28;20869;-69
2022/01/12 01:10:16;;;;;;;24.30;17.33;;;;;;;;;;6125699;28;20228;-69
2022/01/12 01:13:44;;;;;;;23.53;18.17;;;;;;;;;;6124988;28;20654;-69
2022/01/12 01:25:26;;;;;;;20.80;16.07;;;;;;;;;;6112802;28;20254;-69
2022/01/12 01:28:15;;;;;;;21.87;19.60;;;;;;;;;;6116343;28;20220;-70
2022/01/12 01:31:36;;;;;;;19.47;17.33;;;;;;;;;;6124282;28;20626;-71
2022/01/12 01:34:58;;;;;;;25.47;19.70;;;;;;;;;;6109003;28;20236;-70
2022/01/12 01:38:18;;;;;;;19.50;17.40;;;;;;;;;;6125684;28;20255;-70
2022/01/12 01:41:42;;;;;;;22.37;18.23;;;;;;;;;;6122898;28;20538;-70
2022/01/12 01:56:00;;;;;;;27.53;20.00;;;;;;;;;;6109033;28;20263;-70
2022/01/12 01:59:22;;;;;;;25.47;22.17;;;;;;;;;;6100210;28;20315;-69
2022/01/12 02:02:45;;;;;;;24.90;20.87;;;;;;;;;;6123903;28;20243;-69
2022/01/12 02:06:07;;;;;;;24.30;20.87;;;;;;;;;;6110055;28;20256;-69
2022/01/12 02:09:29;;;;;;;27.43;21.13;;;;;;;;;;6063670;29;20277;-70
2022/01/12 02:13:15;;;;;;;29.10;21.60;;;;;;;;;;6119680;28;20235;-69
2022/01/12 02:16:49;;;;;;;28.87;21.40;;;;;;;;;;6105879;28;20243;-69
2022/01/12 02:20:28;;;;;;;29.23;23.20;;;;;;;;;;6104982;28;20232;-71
2022/01/12 02:42:06;;;;;;;36.80;28.20;;;;;;;;;;6110658;28;20240;-69
2022/01/12 02:56:23;;;;;;;39.57;28.87;;;;;;;;;;6120372;28;20232;-70
2022/01/12 03:00:00;;;;;;;37.83;27.60;;;;;;;;;;6112129;28;20236;-69
2022/01/12 03:03:23;;;;;;;35.80;29.53;;;;;;;;;;6109040;28;20318;-69
2022/01/12 03:06:45;;;;;;;45.50;30.43;;;;;;;;;;6122637;28;20521;-68
2022/01/12 03:10:07;;;;;;;36.37;30.63;;;;;;;;;;6112564;28;20261;-71
2022/01/12 03:13:28;;;;;;;48.90;31.77;;;;;;;;;;6098101;28;20274;-70
2022/01/12 03:16:50;;;;;;;40.10;27.57;;;;;;;;;;6113843;28;20673;-69
2022/01/12 03:20:16;;;;;;;39.87;29.20;;;;;;;;;;6127556;28;20628;-70
2022/01/12 03:23:36;;;;;;;41.97;32.83;;;;;;;;;;6125869;28;20231;-69
2022/01/12 03:26:57;;;;;;;44.43;31.10;;;;;;;;;;6112971;28;20501;-69
2022/01/12 03:30:17;;;;;;;36.87;30.17;;;;;;;;;;6112232;28;20227;-69
2022/01/12 03:37:39;;;;;;;39.23;31.47;;;;;;;;;;6128525;28;20244;-69
2022/01/12 03:40:58;;;;;;;41.67;33.03;;;;;;;;;;6128230;28;20306;-69
2022/01/12 03:44:19;;;;;;;40.33;32.10;;;;;;;;;;6088272;28;20259;-69
2022/01/12 03:47:41;;;;;;;40.47;32.40;;;;;;;;;;6110445;28;20702;-69
2022/01/12 03:51:03;;;;;;;46.03;35.17;;;;;;;;;;6112137;28;20240;-69
2022/01/12 03:54:24;;;;;;;43.17;32.80;;;;;;;;;;6099525;28;20219;-69
2022/01/12 03:57:47;;;;;;;43.90;32.77;;;;;;;;;;6121804;28;20244;-70
2022/01/12 04:01:08;;;;;;;41.43;33.00;;;;;;;;;;6123937;28;20237;-70
2022/01/12 04:04:35;;;;;;;48.70;33.57;;;;;;;;;;6103201;28;20243;-68
2022/01/12 04:11:35;;;;;;;51.30;36.13;;;;;;;;;;6113176;28;20681;-69
2022/01/12 04:14:56;;;;;;;46.73;36.07;;;;;;;;;;6127423;28;20888;-69
2022/01/12 04:18:16;;;;;;;43.57;33.20;;;;;;;;;;6127383;28;20228;-69
2022/01/12 04:21:42;;;;;;;42.20;34.27;;;;;;;;;;6122040;28;20500;-69
2022/01/12 04:25:05;;;;;;;49.33;36.73;;;;;;;;;;6113197;28;20240;-69
2022/01/12 04:28:26;;;;;;;41.77;32.47;;;;;;;;;;6121395;28;20327;-70
2022/01/12 04:31:47;;;;;;;55.27;37.70;;;;;;;;;;6125886;28;20240;-69
2022/01/12 04:35:08;;;;;;;48.80;36.53;;;;;;;;;;6110473;28;20232;-69
2022/01/12 04:38:30;;;;;;;51.53;36.03;;;;;;;;;;6111233;28;20239;-69
2022/01/12 04:59:47;;;;;;;38.77;32.43;;;;;;;;;;6104978;28;20594;-70
2022/01/12 05:07:07;;;;;;;43.70;33.53;;;;;;;;;;6113225;28;20232;-69
2022/01/12 05:14:07;;;;;;;38.27;30.27;;;;;;;;;;6125555;28;20243;-69
2022/01/12 05:17:29;;;;;;;46.90;32.17;;;;;;;;;;6120141;28;20228;-69
2022/01/12 05:20:50;;;;;;;42.07;30.93;;;;;;;;;;6121090;28;20255;-69
2022/01/12 05:24:10;;;;;;;46.17;33.47;;;;;;;;;;6123396;28;20224;-69
2022/01/12 05:27:32;;;;;;;59.23;37.47;;;;;;;;;;6109167;28;20248;-69
2022/01/12 05:30:53;;;;;;;41.27;31.80;;;;;;;;;;6124168;28;20637;-69
2022/01/12 05:34:15;;;;;;;47.77;32.43;;;;;;;;;;6111043;28;20244;-69
2022/01/12 05:37:36;;;;;;;48.03;32.93;;;;;;;;;;6108516;28;20235;-68
2022/01/12 05:41:00;;;;;;;46.17;33.60;;;;;;;;;;6110796;28;20232;-69
2022/01/12 05:44:23;;;;;;;43.67;31.87;;;;;;;;;;6123966;28;20255;-69
2022/01/12 05:51:28;;;;;;;44.00;33.40;;;;;;;;;;6109475;28;20619;-68
2022/01/12 05:54:49;;;;;;;49.77;33.47;;;;;;;;;;6111768;28;20228;-68
2022/01/12 05:58:11;;;;;;;46.53;34.53;;;;;;;;;;6108855;28;20250;-68
2022/01/12 06:01:31;;;;;;;46.43;34.17;;;;;;;;;;6095980;28;20759;-69
2022/01/12 06:04:53;;;;;;;47.50;32.37;;;;;;;;;;6123681;28;20243;-70
2022/01/12 06:08:15;;;;;;;40.33;30.43;;;;;;;;;;6114995;28;20224;-69
2022/01/12 06:11:36;;;;;;;43.53;31.93;;;;;;;;;;6105671;28;20239;-69
2022/01/12 06:14:58;;;;;;;54.57;35.53;;;;;;;;;;6106153;28;20290;-69
2022/01/12 06:18:18;;;;;;;41.47;30.30;;;;;;;;;;6105802;28;20294;-69
2022/01/12 06:21:39;;;;;;;35.83;31.13;;;;;;;;;;6117130;28;20235;-70
2022/01/12 06:25:12;;;;;;;38.70;29.93;;;;;;;;;;6124108;28;20235;-70
2022/01/12 06:28:40;;;;;;;46.70;33.43;;;;;;;;;;6111667;28;20228;-70
2022/01/12 06:32:00;;;;;;;49.23;35.67;;;;;;;;;;6108868;28;20837;-70
2022/01/12 06:35:21;;;;;;;46.07;32.67;;;;;;;;;;6121375;28;20547;-69
2022/01/12 06:38:41;;;;;;;39.73;29.73;;;;;;;;;;6110279;28;20602;-69
2022/01/12 06:42:04;;;;;;;51.47;32.00;;;;;;;;;;6118819;28;20244;-69
2022/01/12 06:45:25;;;;;;;48.07;32.47;;;;;;;;;;6123376;28;20277;-70
2022/01/12 06:48:46;;;;;;;43.03;32.77;;;;;;;;;;6124710;28;20505;-69
2022/01/12 06:52:07;;;;;;;43.77;30.73;;;;;;;;;;6114474;28;20235;-70
2022/01/12 06:55:28;;;;;;;41.27;28.67;;;;;;;;;;6102990;28;20555;-69
2022/01/12 06:58:50;;;;;;;45.07;28.80;;;;;;;;;;6112167;28;20260;-69
2022/01/12 07:02:11;;;;;;;41.60;29.17;;;;;;;;;;6121136;28;20350;-69
2022/01/12 07:05:34;;;;;;;47.93;30.80;;;;;;;;;;6123308;28;20338;-70
2022/01/12 07:08:54;;;;;;;44.90;27.03;;;;;;;;;;6101961;28;20231;-70
2022/01/12 07:12:34;;;;;;;45.63;28.17;;;;;;;;;;6124746;28;20333;-68
2022/01/12 07:15:56;;;;;;;45.50;28.57;;;;;;;;;;6108555;28;20228;-68
2022/01/12 07:19:17;;;;;;;44.67;26.87;;;;;;;;;;6125271;28;20329;-69
2022/01/12 07:22:37;;;;;;;41.30;26.53;;;;;;;;;;6123579;28;20227;-69
2022/01/12 07:25:58;;;;;;;38.30;27.00;;;;;;;;;;6114981;28;20227;-68
2022/01/12 07:29:18;;;;;;;37.70;25.03;;;;;;;;;;6121612;28;20235;-69
2022/01/12 07:32:40;;;;;;;38.93;25.07;;;;;;;;;;6115595;28;20239;-69
2022/01/12 07:36:01;;;;;;;36.77;24.23;;;;;;;;;;6115000;28;20255;-69
2022/01/12 07:39:21;;;;;;;43.53;27.90;;;;;;;;;;6115571;28;20358;-70
2022/01/12 07:42:42;;;;;;;37.90;22.73;;;;;;;;;;6112150;28;20239;-69
2022/01/12 07:46:07;;;;;;;40.73;25.60;;;;;;;;;;6114516;28;20224;-68
2022/01/12 07:49:29;;;;;;;42.13;25.20;;;;;;;;;;6115306;28;20538;-69
2022/01/12 07:52:53;;;;;;;40.90;25.43;;;;;;;;;;6113027;28;20239;-69
2022/01/12 07:56:13;;;;;;;38.20;23.77;;;;;;;;;;6104184;28;20236;-69
2022/01/12 07:59:34;;;;;;;36.63;22.77;;;;;;;;;;6107905;28;20283;-70
2022/01/12 08:02:54;;;;;;;39.50;24.37;;;;;;;;;;6103824;28;20236;-69
2022/01/12 08:06:16;;;;;;;33.00;23.03;;;;;;;;;;6107963;28;20813;-69
2022/01/12 08:09:37;;;;;;;38.03;23.57;;;;;;;;;;6110013;28;20235;-69
2022/01/12 08:12:57;;;;;;;32.27;20.93;;;;;;;;;;6111145;28;20273;-69
2022/01/12 08:16:18;;;;;;;33.20;20.87;;;;;;;;;;6111893;28;20239;-70
2022/01/12 08:19:39;;;;;;;39.30;24.10;;;;;;;;;;6115032;28;20232;-70
2022/01/12 08:23:01;;;;;;;34.80;23.10;;;;;;;;;;6113775;28;21580;-69
2022/01/12 08:26:21;;;;;;;36.87;22.30;;;;;;;;;;6113517;28;20227;-69
2022/01/12 08:29:42;;;;;;;29.30;20.87;;;;;;;;;;6109086;28;20236;-69
2022/01/12 08:33:03;;;;;;;32.40;20.17;;;;;;;;;;6105653;28;20326;-70
2022/01/12 08:36:24;;;;;;;35.60;21.50;;;;;;;;;;6109162;28;20235;-70
2022/01/12 08:39:45;;;;;;;31.17;19.93;;;;;;;;;;6112468;28;20864;-70
2022/01/12 08:43:06;;;;;;;33.93;23.20;;;;;;;;;;6107382;28;20609;-70
2022/01/12 08:46:27;;;;;;;30.03;20.20;;;;;;;;;;6104699;28;20231;-69
2022/01/12 08:49:47;;;;;;;33.20;20.80;;;;;;;;;;6105263;28;20232;-69
2022/01/12 08:53:08;;;;;;;30.27;18.30;;;;;;;;;;6101759;28;20236;-69
2022/01/12 08:56:29;;;;;;;21.30;15.07;;;;;;;;;;6101080;28;20227;-71
2022/01/12 08:59:50;;;;;;;26.30;18.20;;;;;;;;;;6099097;28;20232;-70
2022/01/12 09:03:12;;;;;;;30.00;19.43;;;;;;;;;;6108633;28;20610;-71
2022/01/12 09:06:32;;;;;;;29.87;18.63;;;;;;;;;;6111856;28;22640;-70
2022/01/12 09:09:53;;;;;;;31.33;24.83;;;;;;;;;;6105148;28;21195;-68
2022/01/12 09:13:15;;;;;;;29.40;20.87;;;;;;;;;;6102958;28;20235;-67
2022/01/12 09:16:35;;;;;;;30.53;19.67;;;;;;;;;;6098703;28;20323;-68
2022/01/12 09:19:55;;;;;;;28.03;17.67;;;;;;;;;;6096308;28;20603;-68
2022/01/12 09:23:16;;;;;;;32.60;19.73;;;;;;;;;;6106814;28;20236;-68
2022/01/12 09:26:36;;;;;;;31.87;19.77;;;;;;;;;;6104596;28;21812;-69
2022/01/12 09:29:58;;;;;;;31.43;22.03;;;;;;;;;;6115243;28;20235;-69
2022/01/12 09:33:19;;;;;;;25.90;19.57;;;;;;;;;;6112191;28;20712;-69
2022/01/12 09:36:39;;;;;;;32.10;19.93;;;;;;;;;;6116645;28;20244;-69
2022/01/12 09:40:00;;;;;;;30.90;19.43;;;;;;;;;;6112597;28;20236;-68
2022/01/12 09:43:23;;;;;;;30.00;18.27;;;;;;;;;;6106270;28;20279;-68
2022/01/12 09:46:45;;;;;;;29.87;20.87;;;;;;;;;;6114650;28;20236;-68
2022/01/12 09:50:06;;;;;;;34.50;21.67;;;;;;;;;;6110804;28;20247;-68
2022/01/12 09:53:27;;;;;;;32.00;20.20;;;;;;;;;;6110891;28;20235;-68
2022/01/12 09:56:48;;;;;;;33.50;20.63;;;;;;;;;;6108692;28;20285;-68
2022/01/12 10:00:10;;;;;;;34.93;21.90;;;;;;;;;;6104381;28;20236;-67
2022/01/12 10:03:35;;;;;;;31.37;18.20;;;;;;;;;;6098332;28;20227;-68
2022/01/12 10:06:58;;;;;;;27.07;18.27;;;;;;;;;;6105203;28;20239;-69
2022/01/12 10:10:19;;;;;;;29.33;17.40;;;;;;;;;;6108341;28;20267;-68
2022/01/12 10:13:40;;;;;;;29.77;19.00;;;;;;;;;;6107295;28;20229;-66
2022/01/12 10:17:01;;;;;;;31.13;18.67;;;;;;;;;;6104426;28;20622;-70
2022/01/12 10:20:24;;;;;;;31.23;18.50;;;;;;;;;;6105854;28;20661;-68
2022/01/12 10:23:54;;;;;;;30.73;18.60;;;;;;;;;;6105197;28;20236;-68
2022/01/12 10:27:16;;;;;;;27.50;18.13;;;;;;;;;;6102610;28;20231;-69
2022/01/12 10:30:37;;;;;;;25.63;18.47;;;;;;;;;;6100378;28;20238;-68
2022/01/12 10:34:02;;;;;;;27.73;17.87;;;;;;;;;;6098073;28;20235;-67
2022/01/12 10:37:26;;;;;;;27.03;15.93;;;;;;;;;;6103060;28;20240;-67
2022/01/12 10:40:47;;;;;;;30.00;17.57;;;;;;;;;;6101692;28;20602;-67
2022/01/12 10:44:18;;;;;;;28.73;17.57;;;;;;;;;;6103904;28;20294;-68
2022/01/12 10:47:39;;;;;;;23.80;16.67;;;;;;;;;;6104697;28;20231;-67
2022/01/12 10:51:00;;;;;;;24.93;14.30;;;;;;;;;;6105255;28;20227;-66
2022/01/12 10:54:22;;;;;;;27.63;14.57;;;;;;;;;;6103471;28;20240;-67
2022/01/12 10:57:45;;;;;;;23.27;14.23;;;;;;;;;;6104562;28;20232;-68
2022/01/12 11:01:05;;;;;;;23.60;15.10;;;;;;;;;;6104208;28;20372;-67
2022/01/12 11:04:26;;;;;;;21.83;15.37;;;;;;;;;;6100639;28;20231;-69
2022/01/12 11:07:48;;;;;;;20.97;14.33;;;;;;;;;;6109349;28;20319;-67
2022/01/12 11:11:10;;;;;;;23.93;15.23;;;;;;;;;;6103249;28;20236;-68
2022/01/12 11:14:30;;;;;;;26.10;15.80;;;;;;;;;;6104237;28;20240;-68
2022/01/12 11:17:52;;;;;;;24.67;15.07;;;;;;;;;;6108694;28;20239;-68
2022/01/12 11:21:15;;;;;;;23.17;13.60;;;;;;;;;;6102883;28;20224;-68
2022/01/12 11:24:35;;;;;;;19.70;11.43;;;;;;;;;;6104200;28;20881;-68
2022/01/12 11:28:11;;;;;;;21.40;13.63;;;;;;;;;;6107758;28;20227;-68
2022/01/12 11:31:33;;;;;;;20.37;13.00;;;;;;;;;;6108585;28;20236;-66
2022/01/12 11:34:59;;;;;;;17.27;10.33;;;;;;;;;;6109588;28;20235;-68
2022/01/12 11:38:21;;;;;;;21.30;12.00;;;;;;;;;;6110851;28;20315;-68
2022/01/12 11:41:43;;;;;;;19.90;12.63;;;;;;;;;;6109795;28;20255;-68
2022/01/12 11:45:06;;;;;;;22.90;14.63;;;;;;;;;;6111230;28;20236;-67
2022/01/12 11:48:29;;;;;;;19.83;12.80;;;;;;;;;;6110234;28;20232;-68
2022/01/12 11:51:50;;;;;;;19.10;12.83;;;;;;;;;;6111138;28;20244;-68
2022/01/12 11:55:11;;;;;;;21.00;13.03;;;;;;;;;;6110891;28;20232;-68
2022/01/12 11:58:31;;;;;;;24.37;13.80;;;;;;;;;;6110437;28;20259;-69
2022/01/12 12:01:54;;;;;;;22.03;12.87;;;;;;;;;;6103302;28;20228;-68
2022/01/12 12:05:16;;;;;;;23.60;11.80;;;;;;;;;;6111348;28;20247;-67
2022/01/12 12:08:37;;;;;;;17.73;11.67;;;;;;;;;;6105128;28;20244;-68
2022/01/12 12:11:57;;;;;;;21.40;11.37;;;;;;;;;;6108598;28;20243;-68
2022/01/12 12:15:18;;;;;;;21.27;12.70;;;;;;;;;;6111950;28;20625;-68
2022/01/12 12:18:40;;;;;;;18.17;12.23;;;;;;;;;;6109857;28;21738;-67
2022/01/12 12:22:07;;;;;;;26.47;14.40;;;;;;;;;;6107046;28;20236;-68
2022/01/12 12:25:28;;;;;;;16.40;10.53;;;;;;;;;;6108809;28;20509;-67
2022/01/12 12:28:53;;;;;;;23.43;11.80;;;;;;;;;;6103611;28;20253;-67
2022/01/12 12:32:13;;;;;;;19.83;11.70;;;;;;;;;;6107881;28;20236;-67
2022/01/12 12:35:36;;;;;;;22.00;11.27;;;;;;;;;;6106974;28;20795;-67
2022/01/12 12:39:05;;;;;;;23.73;13.93;;;;;;;;;;6107595;28;20342;-67
2022/01/12 12:42:25;;;;;;;23.27;12.13;;;;;;;;;;6108003;28;20246;-67
2022/01/12 12:45:48;;;;;;;19.57;11.73;;;;;;;;;;6113741;28;20358;-66
2022/01/12 12:49:09;;;;;;;20.33;12.53;;;;;;;;;;6114193;28;20280;-67
2022/01/12 12:52:34;;;;;;;20.63;11.60;;;;;;;;;;6112430;28;20760;-67
2022/01/12 12:55:54;;;;;;;19.97;11.27;;;;;;;;;;6113301;28;20259;-67
2022/01/12 12:59:15;;;;;;;17.67;11.33;;;;;;;;;;6114994;28;20239;-67
2022/01/12 13:02:36;;;;;;;18.87;13.33;;;;;;;;;;6103869;28;20228;-68
2022/01/12 13:05:57;;;;;;;21.57;11.90;;;;;;;;;;6104738;28;20228;-67
2022/01/12 13:09:19;;;;;;;16.67;10.97;;;;;;;;;;6109256;28;20626;-67
2022/01/12 13:12:40;;;;;;;22.00;12.10;;;;;;;;;;6100240;28;20228;-68
2022/01/12 13:16:01;;;;;;;20.50;10.53;;;;;;;;;;6101360;28;20334;-68
2022/01/12 13:21:06;;;;;;;20.07;9.80;;;;;;;;;;6103966;28;20259;-67
2022/01/12 13:23:09;;;;;;;17.30;9.17;;;;;;;;;;6100938;28;20259;-67
2022/01/12 13:26:34;;;;;;;14.90;9.20;;;;;;;;;;6098460;28;20236;-68
2022/01/12 13:29:55;;;;;;;15.20;8.07;;;;;;;;;;6101042;28;20240;-68
2022/01/12 13:33:23;;;;;;;16.60;11.03;;;;;;;;;;6098887;28;20228;-68
2022/01/12 13:36:48;;;;;;;16.53;8.20;;;;;;;;;;6093234;28;20267;-70
2022/01/12 13:40:09;;;;;;;15.37;7.70;;;;;;;;;;6100734;28;20260;-69
2022/01/12 13:43:31;;;;;;;13.13;8.50;;;;;;;;;;6107273;28;20884;-68
2022/01/12 13:47:05;;;;;;;18.57;8.13;;;;;;;;;;6103231;28;20232;-69
2022/01/12 13:50:31;;;;;;;17.93;10.17;;;;;;;;;;6112830;28;20503;-69
2022/01/12 13:54:01;;;;;;;15.57;9.60;;;;;;;;;;6104740;28;20871;-68
2022/01/12 13:57:26;;;;;;;16.93;10.30;;;;;;;;;;6107407;28;20235;-68
2022/01/12 14:00:48;;;;;;;17.03;10.37;;;;;;;;;;6105782;28;20223;-68
2022/01/12 14:04:13;;;;;;;17.20;11.60;;;;;;;;;;6108369;28;20239;-68
2022/01/12 14:07:38;;;;;;;20.47;14.10;;;;;;;;;;6106217;28;20626;-68
2022/01/12 14:10:58;;;;;;;16.10;12.07;;;;;;;;;;6109294;28;20324;-69
2022/01/12 14:14:19;;;;;;;17.60;11.83;;;;;;;;;;6099575;28;20244;-69
2022/01/12 14:17:43;;;;;;;23.33;11.83;;;;;;;;;;6104685;28;20310;-69
2022/01/12 14:21:13;;;;;;;18.63;11.20;;;;;;;;;;6107661;28;20220;-67
2022/01/12 14:24:34;;;;;;;22.50;10.77;;;;;;;;;;6104047;28;20239;-68
2022/01/12 14:27:54;;;;;;;23.50;12.73;;;;;;;;;;6107472;28;20259;-68
2022/01/12 14:31:15;;;;;;;20.80;12.97;;;;;;;;;;6107040;28;20232;-69
2022/01/12 14:34:37;;;;;;;18.20;10.40;;;;;;;;;;6105927;28;20517;-69
2022/01/12 14:37:58;;;;;;;19.50;10.97;;;;;;;;;;6103161;28;20597;-69
2022/01/12 14:41:18;;;;;;;16.80;11.97;;;;;;;;;;6098441;28;21482;-68
2022/01/12 14:44:40;;;;;;;17.40;9.77;;;;;;;;;;6100744;28;20598;-69
2022/01/12 14:48:01;;;;;;;18.80;10.73;;;;;;;;;;6099468;28;20520;-69
2022/01/12 14:51:24;;;;;;;15.77;10.10;;;;;;;;;;6098499;28;20693;-69
2022/01/12 14:54:44;;;;;;;21.97;11.70;;;;;;;;;;6084592;28;20630;-68
2022/01/12 14:58:05;;;;;;;18.20;10.10;;;;;;;;;;6100428;28;20600;-69
2022/01/12 15:01:26;;;;;;;15.43;9.03;;;;;;;;;;6102495;28;20251;-69
2022/01/12 15:04:46;;;;;;;16.43;11.23;;;;;;;;;;6104487;28;20232;-68
2022/01/12 15:08:08;;;;;;;20.03;11.93;;;;;;;;;;6101744;28;20811;-70
2022/01/12 15:11:29;;;;;;;23.77;12.00;;;;;;;;;;6109977;28;20703;-69
2022/01/12 15:14:57;;;;;;;25.03;12.73;;;;;;;;;;6112439;28;20231;-69
2022/01/12 15:18:18;;;;;;;20.10;11.17;;;;;;;;;;6110622;28;22187;-70
2022/01/12 15:21:38;;;;;;;24.77;13.77;;;;;;;;;;6110737;28;22263;-70
2022/01/12 15:25:00;;;;;;;19.17;10.03;;;;;;;;;;6098761;28;20228;-68
2022/01/12 15:28:21;;;;;;;20.83;11.43;;;;;;;;;;6089845;28;20236;-68
2022/01/12 15:31:41;;;;;;;19.87;12.30;;;;;;;;;;6097588;28;20243;-69
2022/01/12 15:35:03;;;;;;;17.80;11.10;;;;;;;;;;6104312;28;20243;-69
2022/01/12 15:38:23;;;;;;;21.10;9.73;;;;;;;;;;6088408;28;20228;-69
2022/01/12 15:41:45;;;;;;;20.30;10.53;;;;;;;;;;6088210;28;22027;-69
2022/01/12 15:45:06;;;;;;;18.03;10.10;;;;;;;;;;6096175;28;20228;-68
2022/01/12 15:48:27;;;;;;;19.17;12.07;;;;;;;;;;6106807;28;20228;-69
2022/01/12 15:51:48;;;;;;;20.77;11.47;;;;;;;;;;6113700;28;20502;-69
2022/01/12 15:55:09;;;;;;;16.50;10.77;;;;;;;;;;6110795;28;20256;-69
2022/01/12 15:58:31;;;;;;;23.10;10.53;;;;;;;;;;6112104;28;20310;-69
2022/01/12 16:01:52;;;;;;;19.03;10.67;;;;;;;;;;6100760;28;20252;-68
2022/01/12 16:05:13;;;;;;;18.40;11.53;;;;;;;;;;6108504;28;20247;-69
2022/01/12 16:08:33;;;;;;;24.53;13.20;;;;;;;;;;6099173;28;20618;-68
2022/01/12 16:11:54;;;;;;;29.30;14.80;;;;;;;;;;6097821;28;20235;-68
2022/01/12 16:15:16;;;;;;;22.17;13.37;;;;;;;;;;6104804;28;22115;-69
2022/01/12 16:18:37;;;;;;;24.67;13.17;;;;;;;;;;6097152;28;20288;-69
2022/01/12 16:21:58;;;;;;;22.47;13.53;;;;;;;;;;6107298;28;20228;-68
2022/01/12 16:25:19;;;;;;;13.30;11.87;;;;;;;;;;6104230;28;20232;-69
2022/01/12 16:28:39;;;;;;;18.10;14.20;;;;;;;;;;6095200;28;20239;-69
2022/01/12 16:32:01;;;;;;;21.43;14.80;;;;;;;;;;6095279;28;20603;-69
2022/01/12 16:35:22;;;;;;;20.03;13.27;;;;;;;;;;6079023;28;20240;-68
2022/01/12 16:38:42;;;;;;;20.57;14.53;;;;;;;;;;6061763;29;20245;-69
2022/01/12 16:42:03;;;;;;;19.50;12.37;;;;;;;;;;6095381;28;20256;-69
2022/01/12 16:45:24;;;;;;;21.97;14.37;;;;;;;;;;6101387;28;20263;-68
2022/01/12 16:48:45;;;;;;;19.90;14.57;;;;;;;;;;6098580;28;20766;-68
2022/01/12 16:52:07;;;;;;;18.57;15.03;;;;;;;;;;6094011;28;20239;-69
2022/01/12 16:55:28;;;;;;;20.73;15.47;;;;;;;;;;6100630;28;20224;-69
2022/01/12 16:58:48;;;;;;;23.63;15.00;;;;;;;;;;6104345;28;20231;-68
2022/01/12 17:02:09;;;;;;;24.30;16.87;;;;;;;;;;6100600;28;20638;-68
2022/01/12 17:05:31;;;;;;;24.53;14.93;;;;;;;;;;6088728;28;20510;-69
2022/01/12 17:08:51;;;;;;;24.30;16.80;;;;;;;;;;6097742;28;22222;-69
2022/01/12 17:12:11;;;;;;;22.37;15.40;;;;;;;;;;6106439;28;20260;-69
2022/01/12 17:15:53;;;;;;;19.13;15.00;;;;;;;;;;6104955;28;20239;-70
2022/01/12 17:19:17;;;;;;;16.50;14.17;;;;;;;;;;6106764;28;20228;-68
2022/01/12 17:22:41;;;;;;;23.60;15.50;;;;;;;;;;6109436;28;20318;-69
2022/01/12 17:26:02;;;;;;;19.70;13.90;;;;;;;;;;6104174;28;20228;-69
2022/01/12 17:29:23;;;;;;;18.13;13.87;;;;;;;;;;6104743;28;20510;-68
2022/01/12 17:32:44;;;;;;;20.60;13.40;;;;;;;;;;6104987;28;20358;-69
2022/01/12 17:36:24;;;;;;;19.57;13.27;;;;;;;;;;6103273;28;20243;-68
2022/01/12 17:39:47;;;;;;;23.13;14.17;;;;;;;;;;6085345;28;20229;-65
2022/01/12 17:43:08;;;;;;;18.87;14.03;;;;;;;;;;6095513;28;20527;-68
2022/01/12 17:46:28;;;;;;;23.17;14.33;;;;;;;;;;6101880;28;20831;-69
2022/01/12 17:50:09;;;;;;;21.97;15.27;;;;;;;;;;6114505;28;20228;-67
2022/01/12 17:53:29;;;;;;;26.17;17.13;;;;;;;;;;6105912;28;20713;-69
2022/01/12 17:56:52;;;;;;;28.50;15.70;;;;;;;;;;6107341;28;20282;-68
2022/01/12 18:00:14;;;;;;;21.00;13.97;;;;;;;;;;6104548;28;20643;-68
2022/01/12 18:03:35;;;;;;;28.33;17.20;;;;;;;;;;6098631;28;20268;-68
2022/01/12 18:06:55;;;;;;;23.30;15.20;;;;;;;;;;6094851;28;20240;-68
2022/01/12 18:10:17;;;;;;;25.77;16.73;;;;;;;;;;6097016;28;20236;-66
2022/01/12 18:13:38;;;;;;;27.20;16.90;;;;;;;;;;6099723;28;20830;-68
2022/01/12 18:16:59;;;;;;;25.57;16.03;;;;;;;;;;6103657;28;20657;-68
2022/01/12 18:20:20;;;;;;;22.10;16.20;;;;;;;;;;6096952;28;20501;-68
2022/01/12 18:23:41;;;;;;;22.20;14.50;;;;;;;;;;6106059;28;20244;-67
2022/01/12 18:27:02;;;;;;;33.90;16.90;;;;;;;;;;6104841;28;20255;-70
2022/01/12 18:30:24;;;;;;;25.20;17.37;;;;;;;;;;6106830;28;20223;-70
2022/01/12 18:33:44;;;;;;;27.83;18.20;;;;;;;;;;6106780;28;20231;-70
2022/01/12 18:37:05;;;;;;;24.93;15.73;;;;;;;;;;6105465;28;20638;-70
2022/01/12 18:40:35;;;;;;;26.60;16.90;;;;;;;;;;6097168;28;20236;-69
2022/01/12 18:43:57;;;;;;;30.47;18.53;;;;;;;;;;6091299;28;20251;-70
2022/01/12 18:47:19;;;;;;;26.77;17.47;;;;;;;;;;6106244;28;20255;-68
2022/01/12 18:50:40;;;;;;;30.30;18.73;;;;;;;;;;6111886;28;20240;-70
2022/01/12 18:54:01;;;;;;;29.73;18.37;;;;;;;;;;6108017;28;20327;-69
2022/01/12 18:57:22;;;;;;;27.90;18.03;;;;;;;;;;6110301;28;20235;-69
2022/01/12 19:00:42;;;;;;;26.57;17.37;;;;;;;;;;6106799;28;20235;-69
2022/01/12 19:04:06;;;;;;;30.47;17.90;;;;;;;;;;6101589;28;20236;-70
2022/01/12 19:07:26;;;;;;;25.20;17.20;;;;;;;;;;6099076;28;20240;-70
2022/01/12 19:10:47;;;;;;;31.03;17.00;;;;;;;;;;6112275;28;20617;-69
2022/01/12 19:14:10;;;;;;;23.57;17.63;;;;;;;;;;6113262;28;20231;-70
2022/01/12 19:17:31;;;;;;;26.67;18.17;;;;;;;;;;6112900;28;21999;-69
2022/01/12 19:20:53;;;;;;;29.93;16.73;;;;;;;;;;6106697;28;20633;-71
2022/01/12 19:24:14;;;;;;;29.37;18.83;;;;;;;;;;6110361;28;20232;-70
2022/01/12 19:27:34;;;;;;;32.07;17.40;;;;;;;;;;6104465;28;20271;-69
2022/01/12 19:30:55;;;;;;;28.30;17.70;;;;;;;;;;6113400;28;20975;-68
2022/01/12 19:34:15;;;;;;;33.50;20.27;;;;;;;;;;6108573;28;20231;-70
2022/01/12 19:37:37;;;;;;;32.37;16.23;;;;;;;;;;6108749;28;21595;-69
2022/01/12 19:40:58;;;;;;;31.70;18.53;;;;;;;;;;6104541;28;20243;-70
2022/01/12 19:44:19;;;;;;;25.67;17.57;;;;;;;;;;6110568;28;20610;-69
2022/01/12 19:47:39;;;;;;;30.77;19.37;;;;;;;;;;6105017;28;20236;-68
2022/01/12 19:51:00;;;;;;;27.90;18.67;;;;;;;;;;6105392;28;20228;-70
2022/01/12 19:54:30;;;;;;;30.50;17.37;;;;;;;;;;6113288;28;20235;-70
2022/01/12 19:57:53;;;;;;;27.70;18.03;;;;;;;;;;6114176;28;20513;-71
2022/01/12 20:01:27;;;;;;;33.47;19.53;;;;;;;;;;6113995;28;20238;-70
2022/01/12 20:04:48;;;;;;;28.03;19.73;;;;;;;;;;6119946;28;20259;-70
2022/01/12 20:08:29;;;;;;;33.67;20.10;;;;;;;;;;6111248;28;20227;-70
2022/01/12 20:11:52;;;;;;;32.13;18.77;;;;;;;;;;6113512;28;20224;-69
2022/01/12 20:15:14;;;;;;;45.30;21.60;;;;;;;;;;6114275;28;20239;-68
2022/01/12 20:22:22;;;;;;;28.83;18.30;;;;;;;;;;6105457;28;20232;-69
2022/01/12 20:25:43;;;;;;;32.47;20.73;;;;;;;;;;6114375;28;20239;-71
2022/01/12 20:29:05;;;;;;;30.73;19.37;;;;;;;;;;6110421;28;20323;-69
2022/01/12 20:32:28;;;;;;;33.30;20.67;;;;;;;;;;6117923;28;20326;-69
2022/01/12 20:35:48;;;;;;;31.07;20.60;;;;;;;;;;6115460;28;20634;-69
2022/01/12 20:39:09;;;;;;;44.77;22.10;;;;;;;;;;6109740;28;20526;-69
2022/01/12 20:42:30;;;;;;;26.50;18.47;;;;;;;;;;6123591;28;20232;-65
2022/01/12 20:45:52;;;;;;;32.50;21.13;;;;;;;;;;6117842;28;20236;-66
2022/01/12 20:49:14;;;;;;;39.53;19.13;;;;;;;;;;6117625;28;20232;-65
2022/01/12 20:52:37;;;;;;;38.33;21.03;;;;;;;;;;6109817;28;20282;-66
2022/01/12 20:55:58;;;;;;;36.07;20.33;;;;;;;;;;6109510;28;20322;-65
2022/01/12 20:59:20;;;;;;;41.57;20.03;;;;;;;;;;6112474;28;20239;-66
2022/01/12 21:02:42;;;;;;;27.87;18.77;;;;;;;;;;6108398;28;20232;-65
2022/01/12 21:06:03;;;;;;;33.83;18.83;;;;;;;;;;6106561;28;20243;-64
2022/01/12 21:09:26;;;;;;;33.50;19.47;;;;;;;;;;6101752;28;20318;-67
2022/01/12 21:12:46;;;;;;;33.93;19.53;;;;;;;;;;6109703;28;20685;-66